Time;durP1;ratioP1;P1;durP2;ratioP2;P2;SDS_P1;SDS_P2;PMS_P1;PMS_P2;Temp;Humidity;BMP_temperature;BMP_pressure;BME280_temperature;BME280_humidity;BME280_pressure;Samples;Min_cycle;Max_cycle;Signal;HPM_P1;HPM_P2
2022/02/26 00:00:16;;;;;;;;;;;;;;;15.10;58.46;101261.16;5053494;28;1007;-34
2022/02/26 00:02:43;;;;;;;;;;;;;;;15.13;60.08;101262.75;5053296;28;1296;-34
2022/02/26 00:05:10;;;;;;;;;;;;;;;15.14;60.18;101267.09;5053199;28;1096;-34
2022/02/26 00:07:37;;;;;;;;;;;;;;;15.15;58.58;101261.69;5053436;28;1969;-34
2022/02/26 00:10:05;;;;;;;;;;;;;;;15.09;59.91;101254.94;5053575;28;1078;-34
2022/02/26 00:12:31;;;;;;;;;;;;;;;15.10;60.02;101259.34;5053569;28;1028;-33
2022/02/26 00:14:58;;;;;;;;;;;;;;;15.13;59.93;101268.09;5053518;28;1058;-34
2022/02/26 00:17:25;;;;;;;;;;;;;;;15.08;59.72;101268.34;5053453;28;1088;-34
2022/02/26 00:19:51;;;;;;;;;;;;;;;15.09;59.02;101251.44;5053565;28;1067;-34
2022/02/26 00:22:18;;;;;;;;;;;;;;;15.07;58.92;101259.50;5053449;28;1048;-34
2022/02/26 00:24:44;;;;;;;;;;;;;;;15.10;59.92;101255.81;5053153;28;1182;-34
2022/02/26 00:27:12;;;;;;;;;;;;;;;15.08;59.39;101247.91;5053005;28;1977;-34
2022/02/26 00:29:40;;;;;;;;;;;;;;;15.09;58.75;101257.59;5053405;28;1082;-34
2022/02/26 00:32:07;;;;;;;;;;;;;;;15.08;59.51;101255.03;5053416;28;1210;-34
2022/02/26 00:34:33;;;;;;;;;;;;;;;15.08;59.76;101269.22;5053006;28;1159;-35
2022/02/26 00:37:00;;;;;;;;;;;;;;;15.08;59.28;101263.03;5053249;28;1254;-33
2022/02/26 00:39:26;;;;;;;;;;;;;;;15.08;58.38;101271.91;5053267;28;1070;-34
2022/02/26 00:41:53;;;;;;;;;;;;;;;15.05;59.77;101261.41;5053242;28;1078;-34
2022/02/26 00:44:20;;;;;;;;;;;;;;;15.07;59.07;101270.16;5053149;28;1020;-34
2022/02/26 00:46:47;;;;;;;;;;;;;;;15.06;59.00;101256.94;5053117;28;2167;-33
2022/02/26 00:51:57;;;;;;;;;;;;;;;15.06;58.72;101256.94;5053419;28;722;-34
2022/02/26 00:54:24;;;;;;;;;;;;;;;15.05;59.20;101255.25;5052815;28;1158;-34
2022/02/26 00:56:50;;;;;;;;;;;;;;;15.06;59.70;101265.81;5053239;28;1100;-34
2022/02/26 00:59:17;;;;;;;;;;;;;;;15.06;59.68;101259.59;5053072;28;1081;-34
2022/02/26 01:01:45;;;;;;;;;;;;;;;15.06;59.54;101256.94;5052788;28;1399;-34
2022/02/26 01:04:11;;;;;;;;;;;;;;;15.06;58.88;101272.91;5053428;28;2030;-34
2022/02/26 01:06:37;;;;;;;;;;;;;;;15.05;59.67;101265.91;5052625;28;1985;-34
2022/02/26 01:09:04;;;;;;;;;;;;;;;15.07;59.44;101269.31;5052657;28;1139;-34
2022/02/26 01:11:31;;;;;;;;;;;;;;;15.06;59.18;101278.25;5054869;28;1086;-34
2022/02/26 01:13:58;;;;;;;;;;;;;;;15.02;59.58;101272.28;5056327;28;1084;-34
2022/02/26 01:16:25;;;;;;;;;;;;;;;15.05;58.44;101272.06;5056518;28;1007;-34
2022/02/26 01:18:52;;;;;;;;;;;;;;;15.04;59.31;101283.69;5056426;28;1007;-34
2022/02/26 01:21:19;;;;;;;;;;;;;;;15.01;59.52;101281.22;5056440;28;1004;-34
2022/02/26 01:23:46;;;;;;;;;;;;;;;15.02;59.61;101282.94;5056115;28;1158;-34
2022/02/26 01:26:12;;;;;;;;;;;;;;;15.03;59.36;101291.78;5056008;28;1985;-34
2022/02/26 01:28:39;;;;;;;;;;;;;;;15.00;58.47;101300.81;5056015;28;1096;-34
2022/02/26 01:31:05;;;;;;;;;;;;;;;15.02;58.96;101290.94;5056240;28;1003;-33
2022/02/26 01:33:32;;;;;;;;;;;;;;;15.02;58.77;101272.28;5055913;28;1080;-34
2022/02/26 01:36:00;;;;;;;;;;;;;;;15.03;58.49;101283.78;5055892;28;1083;-33
2022/02/26 01:38:26;;;;;;;;;;;;;;;15.01;57.98;101297.19;5056362;28;1919;-34
2022/02/26 01:40:53;;;;;;;;;;;;;;;15.01;59.07;101283.88;5056123;28;1149;-34
2022/02/26 01:43:19;;;;;;;;;;;;;;;15.02;59.14;101287.38;5055796;28;1329;-34
2022/02/26 01:45:46;;;;;;;;;;;;;;;14.99;59.44;101267.13;5055725;28;1131;-34
2022/02/26 01:48:12;;;;;;;;;;;;;;;15.00;59.37;101295.50;5055917;28;1902;-34
2022/02/26 01:50:39;;;;;;;;;;;;;;;14.97;59.05;101293.00;5055566;28;1147;-34
2022/02/26 01:53:07;;;;;;;;;;;;;;;14.97;59.16;101295.69;5055590;28;1096;-34
2022/02/26 01:55:34;;;;;;;;;;;;;;;14.96;57.95;101278.00;5055904;28;1289;-34
2022/02/26 01:58:00;;;;;;;;;;;;;;;14.98;59.48;101276.09;5055502;28;1143;-33
2022/02/26 02:00:27;;;;;;;;;;;;;;;14.99;58.53;101277.78;5055449;28;1158;-33
2022/02/26 02:02:54;;;;;;;;;;;;;;;15.01;59.22;101299.00;5055381;28;1301;-33
2022/02/26 02:05:21;;;;;;;;;;;;;;;14.98;58.96;101304.50;5055243;28;1075;-34
2022/02/26 02:07:47;;;;;;;;;;;;;;;15.01;59.30;101307.84;5055174;28;1909;-34
2022/02/26 02:10:15;;;;;;;;;;;;;;;15.00;59.51;101322.13;5055531;28;1003;-34
2022/02/26 02:12:42;;;;;;;;;;;;;;;14.97;58.24;101308.16;5055498;28;999;-33
2022/02/26 02:15:08;;;;;;;;;;;;;;;14.95;59.37;101313.56;5055415;28;954;-34
2022/02/26 02:17:35;;;;;;;;;;;;;;;14.95;58.51;101318.88;5055355;28;1047;-34
2022/02/26 02:20:01;;;;;;;;;;;;;;;14.96;59.13;101327.72;5055319;28;1012;-34
2022/02/26 02:22:29;;;;;;;;;;;;;;;14.94;59.34;101322.53;5055250;28;1229;-34
2022/02/26 02:24:55;;;;;;;;;;;;;;;14.94;59.25;101330.50;5054928;28;1100;-33
2022/02/26 02:27:22;;;;;;;;;;;;;;;14.98;59.41;101328.47;5054805;28;1906;-34
2022/02/26 02:29:49;;;;;;;;;;;;;;;14.96;58.13;101335.72;5054868;28;1163;-34
2022/02/26 02:32:15;;;;;;;;;;;;;;;14.96;59.00;101336.59;5055053;28;1071;-34
2022/02/26 02:34:42;;;;;;;;;;;;;;;14.96;59.05;101333.06;5054755;28;1068;-34
2022/02/26 02:37:10;;;;;;;;;;;;;;;14.95;58.67;101324.22;5054943;28;1065;-33
2022/02/26 02:39:38;;;;;;;;;;;;;;;14.93;59.23;101347.41;5056282;28;1068;-35
2022/02/26 02:42:05;;;;;;;;;;;;;;;14.95;58.22;101344.66;5057768;28;1061;-34
2022/02/26 02:44:31;;;;;;;;;;;;;;;14.92;58.45;101356.34;5054525;28;1120;-34
2022/02/26 02:46:57;;;;;;;;;;;;;;;14.95;59.00;101357.97;5054437;28;1975;-34
2022/02/26 02:49:24;;;;;;;;;;;;;;;14.97;59.36;101358.75;5054387;28;1225;-35
2022/02/26 02:51:50;;;;;;;;;;;;;;;14.94;57.90;101359.81;5054411;28;1068;-34
2022/02/26 02:54:17;;;;;;;;;;;;;;;14.92;59.46;101369.66;5054440;28;1182;-34
2022/02/26 02:56:45;;;;;;;;;;;;;;;14.90;57.88;101363.56;5054485;28;1123;-33
2022/02/26 02:59:11;;;;;;;;;;;;;;;14.91;59.38;101378.63;5054581;28;1127;-34
2022/02/26 03:01:44;;;;;;;;;;;;;;;14.95;58.42;101379.28;5144355;22;3590;-35
2022/02/26 03:04:11;;;;;;;;;;;;;;;14.91;59.06;101375.94;5034616;28;1066;-34
2022/02/26 03:06:37;;;;;;;;;;;;;;;14.94;58.31;101399.75;5034487;28;1906;-34
2022/02/26 03:09:04;;;;;;;;;;;;;;;14.91;59.25;101383.94;5034486;28;1007;-34
2022/02/26 03:11:31;;;;;;;;;;;;;;;14.90;59.15;101392.88;5034594;28;1084;-34
2022/02/26 03:13:58;;;;;;;;;;;;;;;14.93;59.44;101400.69;5034419;28;1035;-34
2022/02/26 03:16:25;;;;;;;;;;;;;;;14.91;58.86;101386.59;5035029;28;1958;-34
2022/02/26 03:18:51;;;;;;;;;;;;;;;14.89;58.61;101389.34;5034397;28;1174;-34
2022/02/26 03:21:18;;;;;;;;;;;;;;;14.89;59.26;101388.50;5034002;28;1111;-34
2022/02/26 03:23:44;;;;;;;;;;;;;;;14.90;59.17;101384.88;5034330;28;1017;-34
2022/02/26 03:26:11;;;;;;;;;;;;;;;14.89;59.10;101386.69;5034473;28;1051;-34
2022/02/26 03:28:37;;;;;;;;;;;;;;;14.90;59.17;101384.88;5034367;28;1973;-34
2022/02/26 03:31:05;;;;;;;;;;;;;;;14.88;59.00;101390.31;5034140;28;1060;-34
2022/02/26 03:33:32;;;;;;;;;;;;;;;14.88;58.61;101403.63;5033729;28;1072;-34
2022/02/26 03:35:58;;;;;;;;;;;;;;;14.89;58.56;101409.81;5033663;28;1083;-34
2022/02/26 03:38:25;;;;;;;;;;;;;;;14.87;59.28;101404.56;5033142;28;1137;-34
2022/02/26 03:40:51;;;;;;;;;;;;;;;14.86;58.06;101394.00;5033386;28;1080;-34
2022/02/26 03:43:18;;;;;;;;;;;;;;;14.87;58.32;101407.22;5033699;28;1080;-34
2022/02/26 03:45:44;;;;;;;;;;;;;;;14.85;59.29;101409.13;5033197;28;1012;-34
2022/02/26 03:48:12;;;;;;;;;;;;;;;14.86;59.21;101412.66;5033864;28;1907;-33
2022/02/26 03:50:38;;;;;;;;;;;;;;;14.87;58.58;101422.34;5033932;28;1080;-34
2022/02/26 03:53:05;;;;;;;;;;;;;;;14.86;59.28;101407.31;5033869;28;1074;-34
2022/02/26 03:55:34;;;;;;;;;;;;;;;14.86;59.36;101417.97;5033473;28;1131;-34
2022/02/26 03:58:00;;;;;;;;;;;;;;;14.86;58.68;101409.97;5033476;28;1067;-34
2022/02/26 04:00:27;;;;;;;;;;;;;;;14.87;58.74;101427.69;5033483;28;1080;-34
2022/02/26 04:02:53;;;;;;;;;;;;;;;14.87;58.60;101428.53;5032539;28;1333;-33
2022/02/26 04:05:21;;;;;;;;;;;;;;;14.83;59.07;101427.00;5036328;28;1071;-34
2022/02/26 04:07:48;;;;;;;;;;;;;;;14.86;58.13;101441.94;5034541;28;1910;-34
2022/02/26 04:10:14;;;;;;;;;;;;;;;14.85;58.49;101434.91;5033687;28;1089;-34
2022/02/26 04:12:41;;;;;;;;;;;;;;;14.88;58.41;101442.69;5033647;28;1011;-34
2022/02/26 04:15:08;;;;;;;;;;;;;;;14.85;58.23;101445.56;5033601;28;996;-34
2022/02/26 04:17:34;;;;;;;;;;;;;;;14.83;59.13;101439.47;5033567;28;1046;-34
2022/02/26 04:20:01;;;;;;;;;;;;;;;14.83;58.21;101437.66;5033298;28;1076;-34
2022/02/26 04:22:29;;;;;;;;;;;;;;;14.85;59.02;101442.91;5033533;28;1089;-34
2022/02/26 04:24:55;;;;;;;;;;;;;;;14.84;58.16;101431.41;5033653;28;1011;-34
2022/02/26 04:27:21;;;;;;;;;;;;;;;14.82;59.24;101440.41;5033448;28;1902;-34
2022/02/26 04:29:48;;;;;;;;;;;;;;;14.82;59.42;101451.94;5035112;28;1071;-35
2022/02/26 04:32:14;;;;;;;;;;;;;;;14.80;58.64;101443.19;5036701;28;1091;-34
2022/02/26 04:34:41;;;;;;;;;;;;;;;14.80;58.83;101444.97;5033200;28;1083;-34
2022/02/26 04:37:17;;;;;;;;;;;;;;;14.80;58.95;101447.63;5033106;28;1099;-34
2022/02/26 04:39:45;;;;;;;;;;;;;;;14.79;59.40;101440.59;5033354;28;1083;-34
2022/02/26 04:42:11;;;;;;;;;;;;;;;14.79;58.98;101451.25;5033520;28;998;-34
2022/02/26 04:44:38;;;;;;;;;;;;;;;14.80;58.26;101450.28;5033044;28;1143;-34
2022/02/26 04:47:04;;;;;;;;;;;;;;;14.79;58.33;101451.25;5035880;28;1905;-34
2022/02/26 04:49:31;;;;;;;;;;;;;;;14.79;57.66;101444.13;5036599;28;1012;-34
2022/02/26 04:51:57;;;;;;;;;;;;;;;14.79;58.48;101445.94;5035799;28;1104;-34
2022/02/26 04:54:24;;;;;;;;;;;;;;;14.78;58.54;101453.06;5036626;28;1158;-34
2022/02/26 04:56:52;;;;;;;;;;;;;;;14.79;58.31;101456.56;5036739;28;1143;-34
2022/02/26 04:59:18;;;;;;;;;;;;;;;14.77;59.02;101456.66;5037011;28;1068;-34
2022/02/26 05:01:45;;;;;;;;;;;;;;;14.75;59.22;101444.41;5035439;28;1416;-34
2022/02/26 05:04:11;;;;;;;;;;;;;;;14.77;58.23;101458.47;5036862;28;1087;-34
2022/02/26 05:06:37;;;;;;;;;;;;;;;14.78;58.07;101473.50;5036831;28;1048;-34
2022/02/26 05:09:04;;;;;;;;;;;;;;;14.78;59.27;101476.16;5036740;28;1973;-33
2022/02/26 05:11:31;;;;;;;;;;;;;;;14.77;57.86;101474.44;5036734;28;1262;-34
2022/02/26 05:13:58;;;;;;;;;;;;;;;14.77;57.99;101495.75;5036409;28;1080;-34
2022/02/26 05:16:25;;;;;;;;;;;;;;;14.77;58.66;101479.78;5036394;28;1221;-34
2022/02/26 05:18:51;;;;;;;;;;;;;;;14.80;58.52;101490.22;5036613;28;1046;-33
2022/02/26 05:21:18;;;;;;;;;;;;;;;14.79;59.30;101496.53;5036216;28;1076;-34
2022/02/26 05:23:44;;;;;;;;;;;;;;;14.77;59.20;101487.75;5036556;28;997;-34
2022/02/26 05:26:11;;;;;;;;;;;;;;;14.77;58.95;101501.94;5036163;28;1171;-34
2022/02/26 05:28:38;;;;;;;;;;;;;;;14.78;57.69;101513.44;5036288;28;1902;-34
2022/02/26 05:31:06;;;;;;;;;;;;;;;14.77;59.12;101507.25;5036374;28;1066;-34
2022/02/26 05:33:32;;;;;;;;;;;;;;;14.78;59.18;101513.44;5036598;28;1011;-34
2022/02/26 05:35:59;;;;;;;;;;;;;;;14.78;58.91;101518.75;5035985;28;1151;-34
2022/02/26 05:38:25;;;;;;;;;;;;;;;14.78;58.88;101516.97;5036223;28;1134;-34
2022/02/26 05:40:51;;;;;;;;;;;;;;;14.79;57.53;101528.47;5036259;28;994;-34
2022/02/26 05:43:18;;;;;;;;;;;;;;;14.80;57.21;101519.53;5036134;28;1077;-34
2022/02/26 05:45:44;;;;;;;;;;;;;;;14.78;57.37;101524.06;5035832;28;1111;-34
2022/02/26 05:48:12;;;;;;;;;;;;;;;14.78;57.49;101530.28;5035663;28;1906;-34
2022/02/26 05:50:39;;;;;;;;;;;;;;;14.79;57.76;101547.09;5035930;28;1087;-33
2022/02/26 05:53:05;;;;;;;;;;;;;;;14.78;58.45;101540.94;5035941;28;1027;-34
2022/02/26 05:55:32;;;;;;;;;;;;;;;14.79;59.02;101542.63;5035916;28;1077;-34
2022/02/26 05:57:58;;;;;;;;;;;;;;;14.80;58.62;101548.81;5035471;28;1097;-34
2022/02/26 06:00:25;;;;;;;;;;;;;;;14.79;58.74;101557.75;5035593;28;1166;-34
2022/02/26 06:02:52;;;;;;;;;;;;;;;14.81;57.55;101561.19;5034151;28;1427;-34
2022/02/26 06:05:19;;;;;;;;;;;;;;;14.86;58.94;101559.09;5035282;28;1091;-34
2022/02/26 06:07:46;;;;;;;;;;;;;;;14.87;58.67;101566.16;5035626;28;1909;-34
2022/02/26 06:10:12;;;;;;;;;;;;;;;14.88;58.55;101563.41;5036354;28;1177;-33
2022/02/26 06:12:39;;;;;;;;;;;;;;;14.86;58.46;101559.09;5035296;28;1106;-34
2022/02/26 06:15:06;;;;;;;;;;;;;;;14.88;58.27;101565.19;5035541;28;1078;-34
2022/02/26 06:17:32;;;;;;;;;;;;;;;14.89;58.71;101569.59;5035629;28;953;-34
2022/02/26 06:19:59;;;;;;;;;;;;;;;14.88;57.63;101581.16;5035162;28;1517;-34
2022/02/26 06:22:27;;;;;;;;;;;;;;;14.84;58.13;101566.31;5035146;28;1080;-34
2022/02/26 06:24:53;;;;;;;;;;;;;;;14.88;58.35;101578.50;5035412;28;1050;-34
2022/02/26 06:27:19;;;;;;;;;;;;;;;14.86;57.82;101583.94;5035308;28;1291;-34
2022/02/26 06:29:46;;;;;;;;;;;;;;;14.86;58.46;101575.97;5035115;28;1968;-34
2022/02/26 06:32:12;;;;;;;;;;;;;;;14.89;58.19;101590.91;5035235;28;1073;-33
2022/02/26 06:34:39;;;;;;;;;;;;;;;14.90;56.74;101590.81;5035159;28;1078;-34
2022/02/26 06:37:05;;;;;;;;;;;;;;;14.91;56.65;101591.66;5035087;28;1084;-34
2022/02/26 06:39:33;;;;;;;;;;;;;;;14.94;57.36;101594.16;5035075;28;1015;-34
2022/02/26 06:42:00;;;;;;;;;;;;;;;14.95;57.23;101598.53;5035112;28;1081;-33
2022/02/26 06:44:26;;;;;;;;;;;;;;;14.95;58.06;101611.00;5034984;28;1159;-34
2022/02/26 06:46:53;;;;;;;;;;;;;;;14.95;56.53;101606.50;5034662;28;1078;-34
2022/02/26 06:49:19;;;;;;;;;;;;;;;14.98;58.27;101616.13;5034745;28;1905;-34
2022/02/26 06:51:46;;;;;;;;;;;;;;;14.95;57.38;101613.66;5034390;28;1393;-33
2022/02/26 06:54:13;;;;;;;;;;;;;;;14.96;57.44;101608.25;5034886;28;1109;-33
2022/02/26 06:56:41;;;;;;;;;;;;;;;14.96;58.00;101610.91;5034761;28;1056;-33
2022/02/26 06:59:07;;;;;;;;;;;;;;;14.96;56.92;101610.03;5034726;28;1086;-34
2022/02/26 07:01:34;;;;;;;;;;;;;;;14.95;58.25;101617.16;5033181;28;1517;-34
2022/02/26 07:04:01;;;;;;;;;;;;;;;14.98;58.23;101621.44;5014648;28;1099;-34
2022/02/26 07:06:27;;;;;;;;;;;;;;;14.96;58.29;101626.88;5014541;28;1150;-34
2022/02/26 07:08:54;;;;;;;;;;;;;;;14.97;57.80;101630.41;5014041;28;1906;-33
2022/02/26 07:11:20;;;;;;;;;;;;;;;14.96;57.95;101632.22;5014765;28;1114;-33
2022/02/26 07:13:48;;;;;;;;;;;;;;;14.96;58.18;101629.56;5014468;28;1167;-33
2022/02/26 07:16:14;;;;;;;;;;;;;;;14.95;58.08;101633.16;5014663;28;1096;-34
2022/02/26 07:18:41;;;;;;;;;;;;;;;14.99;58.33;101617.84;5014222;28;1147;-34
2022/02/26 07:21:07;;;;;;;;;;;;;;;14.97;57.64;101635.72;5014275;28;1091;-33
2022/02/26 07:23:34;;;;;;;;;;;;;;;14.98;57.44;101640.09;5014277;28;1084;-33
2022/02/26 07:26:03;;;;;;;;;;;;;;;14.99;57.43;101633.84;5014527;28;1068;-34
2022/02/26 07:28:29;;;;;;;;;;;;;;;15.00;58.38;101644.41;5014402;28;1907;-34
2022/02/26 07:30:57;;;;;;;;;;;;;;;15.03;58.04;101641.56;5014427;28;1087;-34
2022/02/26 07:33:24;;;;;;;;;;;;;;;15.01;57.76;101622.13;5015777;28;957;-34
2022/02/26 07:35:50;;;;;;;;;;;;;;;15.00;58.11;101636.41;5014618;28;959;-34
2022/02/26 07:38:16;;;;;;;;;;;;;;;15.04;57.65;101645.06;5014060;28;1076;-34
2022/02/26 07:40:43;;;;;;;;;;;;;;;14.99;57.67;101644.50;5014061;28;1154;-34
2022/02/26 07:43:10;;;;;;;;;;;;;;;15.01;58.02;101645.25;5013881;28;1068;-34
2022/02/26 07:45:36;;;;;;;;;;;;;;;15.04;58.62;101648.63;5014252;28;1100;-34
2022/02/26 07:48:04;;;;;;;;;;;;;;;15.03;58.60;101649.53;5014128;28;1906;-34
2022/02/26 07:50:31;;;;;;;;;;;;;;;15.01;58.44;101632.78;5014137;28;1081;-34
2022/02/26 07:52:57;;;;;;;;;;;;;;;15.04;58.50;101643.28;5013979;28;1083;-34
2022/02/26 07:55:24;;;;;;;;;;;;;;;15.04;58.59;101627.31;5014164;28;1090;-34
2022/02/26 07:57:51;;;;;;;;;;;;;;;15.07;58.41;101635.09;5014594;28;1075;-34
2022/02/26 08:00:18;;;;;;;;;;;;;;;15.05;57.80;101636.16;5014360;28;1012;-34
2022/02/26 08:02:45;;;;;;;;;;;;;;;15.08;57.35;101635.94;5021919;28;1542;-33
2022/02/26 08:05:12;;;;;;;;;;;;;;;15.09;58.58;101640.34;5033336;28;1088;-34
2022/02/26 08:07:39;;;;;;;;;;;;;;;15.10;58.78;101634.94;5033341;28;1142;-34
2022/02/26 08:10:06;;;;;;;;;;;;;;;15.13;58.43;101647.22;5033610;28;1902;-34
2022/02/26 08:12:32;;;;;;;;;;;;;;;15.11;58.49;101633.97;5033337;28;1076;-34
2022/02/26 08:14:59;;;;;;;;;;;;;;;15.16;58.43;101648.81;5033694;28;1135;-34
2022/02/26 08:17:25;;;;;;;;;;;;;;;15.16;58.34;101636.38;5033213;28;1170;-34
2022/02/26 08:19:52;;;;;;;;;;;;;;;15.19;58.11;101640.66;5034594;28;1000;-33
2022/02/26 08:22:20;;;;;;;;;;;;;;;15.14;58.28;101622.31;5037363;28;1225;-34
2022/02/26 08:24:46;;;;;;;;;;;;;;;15.13;57.66;101617.06;5037259;28;1143;-34
2022/02/26 08:27:13;;;;;;;;;;;;;;;15.14;57.38;101629.41;5037268;28;954;-34
2022/02/26 08:29:40;;;;;;;;;;;;;;;15.17;58.11;101621.25;5037338;28;1997;-34
2022/02/26 08:32:07;;;;;;;;;;;;;;;15.17;58.34;101627.44;5037477;28;1098;-34
2022/02/26 08:34:33;;;;;;;;;;;;;;;15.16;58.22;101615.06;5037436;28;1063;-34
2022/02/26 08:37:00;;;;;;;;;;;;;;;15.18;57.51;101622.97;5037323;28;1060;-34
2022/02/26 08:39:29;;;;;;;;;;;;;;;15.22;57.85;101629.81;5037058;28;1163;-33
2022/02/26 08:41:56;;;;;;;;;;;;;;;15.22;58.18;101622.72;5036953;28;1134;-33
2022/02/26 08:44:22;;;;;;;;;;;;;;;15.24;57.81;101609.28;5037242;28;1070;-34
2022/02/26 08:46:49;;;;;;;;;;;;;;;15.27;58.18;101619.75;5037222;28;1023;-34
2022/02/26 08:49:15;;;;;;;;;;;;;;;15.27;57.27;101633.09;5037037;28;1985;-34
2022/02/26 08:51:42;;;;;;;;;;;;;;;15.27;56.78;101622.44;5037102;28;1266;-33
2022/02/26 08:54:08;;;;;;;;;;;;;;;15.29;58.36;101615.19;5036998;28;1012;-34
2022/02/26 08:56:36;;;;;;;;;;;;;;;15.30;58.34;101606.28;5037068;28;1062;-34
2022/02/26 08:59:02;;;;;;;;;;;;;;;15.32;56.98;101628.38;5036689;28;1216;-34
2022/02/26 09:01:29;;;;;;;;;;;;;;;15.33;57.22;101622.06;5036557;28;1498;-34
2022/02/26 09:03:56;;;;;;;;;;;;;;;15.34;57.26;101634.47;5035426;28;1174;-34
2022/02/26 09:06:22;;;;;;;;;;;;;;;15.38;58.50;101641.31;5036959;28;1062;-33
2022/02/26 09:08:49;;;;;;;;;;;;;;;15.38;58.39;101637.78;5036459;28;1975;-34
2022/02/26 09:11:15;;;;;;;;;;;;;;;15.34;56.87;101613.13;5036692;28;1080;-34
2022/02/26 09:13:45;;;;;;;;;;;;;;;15.36;56.79;101627.22;5036416;28;1146;-33
2022/02/26 09:16:11;;;;;;;;;;;;;;;15.37;57.03;101622.75;5036663;28;1073;-34
2022/02/26 09:18:38;;;;;;;;;;;;;;;15.36;58.10;101623.69;5036560;28;1091;-34
2022/02/26 09:21:05;;;;;;;;;;;;;;;15.40;58.08;101614.56;5036566;28;1077;-34
2022/02/26 09:23:31;;;;;;;;;;;;;;;15.40;58.04;101635.88;5036490;28;1062;-33
2022/02/26 09:25:58;;;;;;;;;;;;;;;15.38;58.25;101613.78;5036447;28;1174;-34
2022/02/26 09:28:24;;;;;;;;;;;;;;;15.42;57.13;101621.53;5036361;28;1910;-34
2022/02/26 09:30:52;;;;;;;;;;;;;;;15.44;56.76;101627.63;5036150;28;1073;-34
2022/02/26 09:33:19;;;;;;;;;;;;;;;15.42;56.69;101610.88;5035531;28;1088;-34
2022/02/26 09:35:45;;;;;;;;;;;;;;;15.43;56.74;101620.56;5036042;28;1163;-34
2022/02/26 09:38:12;;;;;;;;;;;;;;;15.46;57.12;101622.22;5036260;28;1155;-34
2022/02/26 09:40:38;;;;;;;;;;;;;;;15.47;57.26;101623.91;5036163;28;1084;-34
2022/02/26 09:43:05;;;;;;;;;;;;;;;15.44;57.51;101619.63;5036223;28;1107;-34
2022/02/26 09:45:31;;;;;;;;;;;;;;;15.47;57.02;101623.91;5035779;28;1092;-34
2022/02/26 09:47:59;;;;;;;;;;;;;;;15.45;56.92;101624.00;5035807;28;1092;-34
2022/02/26 09:50:25;;;;;;;;;;;;;;;15.42;57.83;101628.66;5035674;28;1906;-33
2022/02/26 09:52:53;;;;;;;;;;;;;;;15.42;57.35;101613.53;5035628;28;1072;-34
2022/02/26 09:55:19;;;;;;;;;;;;;;;15.44;56.80;101632.97;5036114;28;1073;-34
2022/02/26 09:57:46;;;;;;;;;;;;;;;15.47;58.50;101622.09;5035864;28;1028;-34
2022/02/26 10:00:12;;;;;;;;;;;;;;;15.40;56.93;101612.78;5035846;28;1084;-34
2022/02/26 10:02:39;;;;;;;;;;;;;;;15.42;57.34;101616.19;5034173;28;1488;-34
2022/02/26 10:05:10;;;;;;;;;;;;;;;15.44;58.55;101630.28;5035391;28;1151;-34
2022/02/26 10:07:37;;;;;;;;;;;;;;;15.45;57.10;101612.47;5035941;28;1047;-34
2022/02/26 10:10:07;;;;;;;;;;;;;;;15.45;57.21;101626.66;5035828;28;1910;-34
2022/02/26 10:12:36;;;;;;;;;;;;;;;15.47;56.98;101613.25;5035618;28;1071;-34
2022/02/26 10:15:04;;;;;;;;;;;;;;;15.49;58.55;101606.88;5035567;28;1065;-34
2022/02/26 10:17:31;;;;;;;;;;;;;;;15.44;57.15;101600.97;5035331;28;1061;-34
2022/02/26 10:20:11;;;;;;;;;;;;;;;15.49;58.46;101622.00;5035222;28;1100;-34
2022/02/26 10:22:39;;;;;;;;;;;;;;;15.48;57.88;101609.66;5035150;28;1108;-34
2022/02/26 10:25:07;;;;;;;;;;;;;;;15.50;57.21;101624.59;5035728;28;1042;-34
2022/02/26 10:27:33;;;;;;;;;;;;;;;15.50;57.29;101615.75;5035314;28;1092;-34
2022/02/26 10:29:59;;;;;;;;;;;;;;;15.50;58.04;101611.25;5035121;28;1906;-34
2022/02/26 10:32:26;;;;;;;;;;;;;;;15.51;58.16;101620.97;5035245;28;1059;-34
2022/02/26 10:35:01;;;;;;;;;;;;;;;15.51;57.65;101620.97;5035230;28;1089;-34
2022/02/26 10:37:28;;;;;;;;;;;;;;;15.51;58.45;101620.97;5035031;28;1086;-34
2022/02/26 10:39:56;;;;;;;;;;;;;;;15.51;57.81;101618.28;5035168;28;1082;-34
2022/02/26 10:42:23;;;;;;;;;;;;;;;15.47;58.23;101603.44;5034919;28;1083;-34
2022/02/26 10:44:59;;;;;;;;;;;;;;;15.52;57.80;101624.50;5035987;28;1076;-34
2022/02/26 10:47:27;;;;;;;;;;;;;;;15.50;59.00;101610.41;5034963;28;1043;-34
2022/02/26 10:49:54;;;;;;;;;;;;;;;15.44;57.62;101598.31;5034796;28;1958;-34
2022/02/26 10:52:20;;;;;;;;;;;;;;;15.47;57.39;101608.78;5034560;28;1344;-34
2022/02/26 10:54:52;;;;;;;;;;;;;;;15.48;57.73;101594.50;5035399;28;1083;-34
2022/02/26 10:57:19;;;;;;;;;;;;;;;15.50;57.44;101597.94;5035827;28;998;-34
2022/02/26 10:59:51;;;;;;;;;;;;;;;15.47;58.18;101598.09;5034737;28;1000;-34
2022/02/26 11:02:22;;;;;;;;;;;;;;;15.48;58.23;101601.66;5033028;28;1408;-34
2022/02/26 11:04:49;;;;;;;;;;;;;;;15.46;57.72;101592.88;5035375;28;1093;-34
2022/02/26 11:07:15;;;;;;;;;;;;;;;15.51;57.62;101593.47;5034212;28;1092;-34
2022/02/26 11:09:43;;;;;;;;;;;;;;;15.49;58.12;101595.34;5034465;28;1906;-34
2022/02/26 11:12:13;;;;;;;;;;;;;;;15.46;59.09;101585.75;5034162;28;954;-34
2022/02/26 11:14:42;;;;;;;;;;;;;;;15.49;57.94;101585.53;5034491;28;1019;-34
2022/02/26 11:17:11;;;;;;;;;;;;;;;15.48;58.25;101594.50;5034101;28;1111;-34
2022/02/26 11:19:38;;;;;;;;;;;;;;;15.47;58.25;101597.25;5036440;28;1073;-31
2022/02/26 11:22:05;;;;;;;;;;;;;;;15.49;57.57;101585.53;5035255;28;1064;-34
2022/02/26 11:24:32;;;;;;;;;;;;;;;15.49;57.50;101593.53;5034014;28;1083;-34
2022/02/26 11:26:59;;;;;;;;;;;;;;;15.47;57.82;101579.44;5034186;28;1081;-34
2022/02/26 11:29:27;;;;;;;;;;;;;;;15.48;57.69;101583.84;5033757;28;1973;-34
2022/02/26 11:31:57;;;;;;;;;;;;;;;15.47;58.05;101587.44;5034158;28;1063;-34
2022/02/26 11:34:25;;;;;;;;;;;;;;;15.45;57.76;101578.69;5033764;28;1174;-33
2022/02/26 11:36:53;;;;;;;;;;;;;;;15.47;57.67;101576.78;5033768;28;1151;-34
2022/02/26 11:39:27;;;;;;;;;;;;;;;15.46;58.76;101568.91;5034099;28;1073;-34
2022/02/26 11:42:08;;;;;;;;;;;;;;;15.48;57.70;101562.53;5033948;28;1089;-34
2022/02/26 11:44:39;;;;;;;;;;;;;;;15.50;57.49;101575.75;5021109;28;1817;-33
2022/02/26 11:47:13;;;;;;;;;;;;;;;15.50;58.25;101579.28;5033916;28;1027;-34
2022/02/26 11:49:39;;;;;;;;;;;;;;;15.56;57.72;101579.84;5033525;28;1971;-34
2022/02/26 11:52:15;;;;;;;;;;;;;;;15.54;57.85;101568.41;5033869;28;1076;-34
2022/02/26 11:54:42;;;;;;;;;;;;;;;15.58;57.57;101572.59;5033106;28;1084;-33
2022/02/26 11:57:10;;;;;;;;;;;;;;;15.57;58.03;101571.75;5033837;28;1082;-33
2022/02/26 11:59:37;;;;;;;;;;;;;;;15.61;57.66;101586.59;5033795;28;1093;-34
2022/02/26 12:02:06;;;;;;;;;;;;;;;15.52;58.92;101553.38;5033462;28;1420;-34
2022/02/26 12:04:46;;;;;;;;;;;;;;;15.56;57.51;101569.19;5033125;28;2028;-34
2022/02/26 12:07:27;;;;;;;;;;;;;;;15.53;57.87;101572.91;5033639;28;1071;-33
2022/02/26 12:09:58;;;;;;;;;;;;;;;15.56;57.81;101569.19;5033319;28;1975;-34
2022/02/26 12:12:31;;;;;;;;;;;;;;;15.56;59.11;101574.50;5033676;28;1061;-34
2022/02/26 12:14:58;;;;;;;;;;;;;;;15.56;58.59;101566.50;5034210;28;2049;-33
2022/02/26 12:17:26;;;;;;;;;;;;;;;15.47;57.79;101560.78;5033608;28;1065;-33
2022/02/26 12:19:54;;;;;;;;;;;;;;;15.50;58.06;101565.09;5033245;28;1230;-33
2022/02/26 12:22:22;;;;;;;;;;;;;;;15.56;58.92;101574.50;5033333;28;1070;-33
2022/02/26 12:24:49;;;;;;;;;;;;;;;15.52;57.78;101553.38;5033616;28;1096;-34
2022/02/26 12:27:15;;;;;;;;;;;;;;;15.53;58.94;101548.91;5033801;28;1013;-34
2022/02/26 12:29:53;;;;;;;;;;;;;;;15.53;57.80;101559.56;5033357;28;1975;-34
2022/02/26 12:32:20;;;;;;;;;;;;;;;15.55;58.46;101556.81;5033368;28;1154;-34
2022/02/26 12:34:58;;;;;;;;;;;;;;;15.55;59.10;101568.31;5033713;28;1088;-33
2022/02/26 12:37:26;;;;;;;;;;;;;;;15.58;58.96;101561.94;5033322;28;1083;-33
2022/02/26 12:39:53;;;;;;;;;;;;;;;15.59;58.28;101563.66;5033364;28;970;-34
2022/02/26 12:42:21;;;;;;;;;;;;;;;15.50;58.42;101578.44;5033318;28;1041;-34
2022/02/26 12:44:49;;;;;;;;;;;;;;;15.47;58.82;101566.13;5033615;28;1066;-34
2022/02/26 12:47:15;;;;;;;;;;;;;;;15.50;58.00;101571.28;5033297;28;1123;-34
2022/02/26 12:49:41;;;;;;;;;;;;;;;15.50;58.41;101573.09;5032885;28;1975;-33